This is the latest recevied weather packets stored in our database for station/object W1SCW. If no packets are shown the sender has not sent any weather packets the latest 10 day(s).
| Time | Temp. | Humidity | Pressure | Rain* | Wind** | Luminosity | Snow |
|---|---|---|---|---|---|---|---|
| 1777488508 | 30.56° C | 70% | 1009.8 hPa | 0 mm | - | 337 W/m² | - |
| 1777488206 | 30.56° C | 69% | 1009.8 hPa | 0 mm | - | 301 W/m² | - |
| 1777487904 | 30.56° C | 70% | 1010 hPa | 0 mm | - | 244 W/m² | - |
| 1777487601 | 30.56° C | 69% | 1010.2 hPa | 0 mm | - | 445 W/m² | - |
| 1777487299 | 30° C | 70% | 1010.2 hPa | 0 mm | - | 262 W/m² | - |
| 1777486996 | 30.56° C | 71% | 1010.5 hPa | 0 mm | - | 276 W/m² | - |
| 1777486692 | 31.11° C | 69% | 1010.2 hPa | 0 mm | - | 540 W/m² | - |
| 1777486390 | 31.11° C | 69% | 1010.3 hPa | 0 mm | - | 446 W/m² | - |
| 1777486087 | 31.11° C | 69% | 1010.3 hPa | 0 mm | - | 758 W/m² | - |
| 1777485783 | 31.11° C | 69% | 1010.5 hPa | 0 mm | - | 834 W/m² | - |
| 1777485479 | 31.11° C | 70% | 1010.5 hPa | 0 mm | - | 658 W/m² | - |
| 1777485175 | 30.56° C | 71% | 1010.9 hPa | 0 mm | - | 539 W/m² | - |
| 1777484871 | 30° C | 72% | 1011.1 hPa | 0 mm | - | 574 W/m² | - |
| 1777484569 | 30° C | 73% | 1011.1 hPa | 0 mm | - | 349 W/m² | - |
| 1777484265 | 30° C | 72% | 1011.1 hPa | 0 mm | - | 534 W/m² | - |
| 1777483961 | 30° C | 72% | 1011.3 hPa | 0 mm | - | 585 W/m² | - |
| 1777483658 | 30.56° C | 71% | 1011.3 hPa | 0 mm | - | 716 W/m² | - |
| 1777483353 | 30° C | 72% | 1011.6 hPa | 0 mm | - | 537 W/m² | - |
| 1777483049 | 29.44° C | 73% | 1011.5 hPa | 0 mm | - | 780 W/m² | - |
| 1777482746 | 29.44° C | 73% | 1011.7 hPa | 0 mm | - | 324 W/m² | - |
| 1777482442 | 30° C | 71% | 1011.5 hPa | 0 mm | - | 436 W/m² | - |
| 1777482140 | 30° C | 72% | 1011.6 hPa | 0 mm | - | 908 W/m² | - |
| 1777481838 | 28.89° C | 74% | 1011.6 hPa | 0 mm | - | 339 W/m² | - |
| 1777481534 | 29.44° C | 73% | 1011.5 hPa | 0 mm | - | 424 W/m² | - |
| 1777481231 | 28.89° C | 76% | 1011.6 hPa | 0 mm | - | 482 W/m² | - |
* Rain latest hour (hover to see other rain measurements)
** Current wind speed in m/s (hover to see current wind gust speed)